createdAt,value
2024-02-06T00:00:04.254Z,90.000000
2024-02-06T00:01:00.712Z,90.000000
2024-02-06T00:02:00.765Z,90.000000
2024-02-06T00:06:00.834Z,67.500000
2024-02-06T00:07:00.805Z,67.500000
2024-02-06T00:08:01.059Z,78.750000
2024-02-06T00:09:00.699Z,78.750000
2024-02-06T00:10:04.317Z,33.750000
2024-02-06T00:11:00.762Z,33.750000
2024-02-06T00:12:00.816Z,33.750000
2024-02-06T00:13:00.761Z,45.000000
2024-02-06T00:14:00.810Z,45.000000
2024-02-06T00:15:03.707Z,45.000000
2024-02-06T00:16:00.952Z,33.750000
2024-02-06T00:17:00.789Z,33.750000
2024-02-06T00:18:00.886Z,78.750000
2024-02-06T00:19:00.883Z,78.750000
2024-02-06T00:20:04.190Z,67.500000
2024-02-06T00:21:00.818Z,67.500000
2024-02-06T00:22:00.942Z,67.500000
2024-02-06T00:23:00.815Z,67.500000
2024-02-06T00:24:00.946Z,56.250000
2024-02-06T00:25:03.850Z,56.250000
2024-02-06T00:26:00.921Z,33.750000
2024-02-06T00:27:00.888Z,33.750000
2024-02-06T00:28:01.000Z,33.750000
2024-02-06T00:29:00.860Z,67.500000
2024-02-06T00:30:04.194Z,67.500000
2024-02-06T00:31:00.945Z,78.750000
2024-02-06T00:32:01.007Z,78.750000
2024-02-06T00:33:00.957Z,56.250000
2024-02-06T00:34:01.252Z,56.250000
2024-02-06T00:35:03.841Z,56.250000
2024-02-06T00:36:01.008Z,78.750000
2024-02-06T00:37:01.056Z,78.750000
2024-02-06T00:38:01.059Z,78.750000
2024-02-06T00:39:01.029Z,90.000000
2024-02-06T00:40:04.472Z,90.000000
2024-02-06T00:41:01.014Z,90.000000
2024-02-06T00:42:01.107Z,90.000000
2024-02-06T00:43:01.081Z,67.500000
2024-02-06T00:44:01.140Z,67.500000
2024-02-06T00:45:03.843Z,67.500000
2024-02-06T00:46:01.180Z,78.750000
2024-02-06T00:47:01.089Z,78.750000
2024-02-06T00:48:01.388Z,78.750000
2024-02-06T00:49:01.329Z,33.750000
2024-02-06T00:50:06.661Z,33.750000
2024-02-06T00:51:01.160Z,33.750000
2024-02-06T00:52:01.251Z,78.750000
2024-02-06T00:53:01.095Z,78.750000
2024-02-06T00:54:01.194Z,67.500000
2024-02-06T00:55:04.262Z,67.500000
2024-02-06T00:56:01.185Z,56.250000
2024-02-06T00:57:01.139Z,56.250000
2024-02-06T00:58:01.300Z,56.250000
2024-02-06T00:59:01.165Z,45.000000
2024-02-06T01:00:04.676Z,45.000000
2024-02-06T01:01:00.271Z,45.000000
2024-02-06T01:02:00.398Z,78.750000
2024-02-06T01:03:00.201Z,78.750000
2024-02-06T01:04:00.420Z,56.250000
2024-02-06T01:05:03.261Z,56.250000
2024-02-06T01:06:00.337Z,45.000000
2024-02-06T01:07:00.339Z,45.000000
2024-02-06T01:08:00.435Z,45.000000
2024-02-06T01:09:00.254Z,78.750000
2024-02-06T01:10:03.821Z,78.750000
2024-02-06T01:11:00.288Z,78.750000
2024-02-06T01:12:00.381Z,90.000000
2024-02-06T01:13:00.344Z,90.000000
2024-02-06T01:14:00.460Z,67.500000
2024-02-06T01:15:03.238Z,67.500000
2024-02-06T01:16:00.493Z,67.500000
2024-02-06T01:17:00.356Z,67.500000
2024-02-06T01:18:00.459Z,67.500000
2024-02-06T01:19:00.403Z,56.250000
2024-02-06T01:20:03.975Z,56.250000
2024-02-06T01:21:00.404Z,56.250000
2024-02-06T01:22:00.531Z,56.250000
2024-02-06T01:23:00.401Z,56.250000
2024-02-06T01:24:00.477Z,67.500000
2024-02-06T01:25:03.497Z,67.500000
2024-02-06T01:26:00.499Z,67.500000
2024-02-06T01:27:00.429Z,56.250000
2024-02-06T01:28:00.554Z,56.250000
2024-02-06T01:29:00.415Z,67.500000
2024-02-06T01:30:04.403Z,67.500000
2024-02-06T01:31:00.521Z,67.500000
2024-02-06T01:32:00.567Z,56.250000
2024-02-06T01:33:00.621Z,56.250000
2024-02-06T01:34:00.781Z,56.250000
2024-02-06T01:35:03.373Z,56.250000
2024-02-06T01:36:00.603Z,56.250000
2024-02-06T01:37:00.544Z,67.500000
2024-02-06T01:38:00.569Z,67.500000
2024-02-06T01:39:00.524Z,78.750000
2024-02-06T01:40:03.964Z,78.750000
2024-02-06T01:41:00.577Z,78.750000
2024-02-06T01:42:00.632Z,67.500000
2024-02-06T01:43:00.702Z,67.500000
2024-02-06T01:44:00.638Z,67.500000
2024-02-06T01:45:04.188Z,45.000000
2024-02-06T01:46:00.746Z,45.000000
2024-02-06T01:47:00.691Z,56.250000
2024-02-06T01:48:00.776Z,56.250000
2024-02-06T01:49:00.688Z,56.250000
2024-02-06T01:50:04.001Z,45.000000
2024-02-06T01:51:00.707Z,45.000000
2024-02-06T01:52:00.760Z,78.750000
2024-02-06T01:53:00.713Z,78.750000
2024-02-06T01:54:00.728Z,78.750000
2024-02-06T01:55:03.874Z,78.750000
2024-02-06T01:56:00.765Z,78.750000
2024-02-06T01:57:00.747Z,56.250000
2024-02-06T01:58:00.827Z,56.250000
2024-02-06T01:59:00.732Z,56.250000
2024-02-06T02:00:04.086Z,33.750000
2024-02-06T02:01:00.966Z,33.750000
2024-02-06T02:02:00.978Z,56.250000
2024-02-06T02:03:00.771Z,56.250000
2024-02-06T02:04:00.936Z,56.250000
2024-02-06T02:05:03.763Z,56.250000
2024-02-06T02:06:01.029Z,56.250000
2024-02-06T02:07:00.922Z,56.250000
2024-02-06T02:08:00.866Z,67.500000
2024-02-06T02:09:00.830Z,67.500000
2024-02-06T02:10:04.132Z,33.750000
2024-02-06T02:11:00.824Z,33.750000
2024-02-06T02:12:00.960Z,33.750000
2024-02-06T02:13:00.873Z,67.500000
2024-02-06T02:14:00.924Z,67.500000
2024-02-06T02:15:03.699Z,56.250000
2024-02-06T02:16:03.592Z,56.250000
2024-02-06T02:17:00.894Z,56.250000
2024-02-06T02:18:01.196Z,56.250000
2024-02-06T02:19:00.989Z,56.250000
2024-02-06T02:20:04.446Z,56.250000
2024-02-06T02:21:00.919Z,56.250000
2024-02-06T02:22:01.010Z,56.250000
2024-02-06T02:23:00.954Z,67.500000
2024-02-06T02:24:00.996Z,67.500000
2024-02-06T02:25:03.917Z,67.500000
2024-02-06T02:26:01.064Z,67.500000
2024-02-06T02:27:01.016Z,67.500000
2024-02-06T02:28:01.106Z,67.500000
2024-02-06T02:29:01.017Z,67.500000
2024-02-06T02:30:04.249Z,67.500000
2024-02-06T02:31:01.068Z,67.500000
2024-02-06T02:32:01.088Z,67.500000
2024-02-06T02:33:01.071Z,67.500000
2024-02-06T02:34:01.171Z,67.500000
2024-02-06T02:35:03.990Z,45.000000
2024-02-06T02:36:01.141Z,45.000000
2024-02-06T02:37:01.074Z,67.500000
2024-02-06T02:38:01.116Z,67.500000
2024-02-06T02:39:01.098Z,67.500000
2024-02-06T02:40:05.081Z,45.000000
2024-02-06T02:41:01.132Z,45.000000
2024-02-06T02:42:01.190Z,45.000000
2024-02-06T02:43:01.180Z,78.750000
2024-02-06T02:44:01.210Z,78.750000
2024-02-06T02:45:04.017Z,78.750000
2024-02-06T02:46:01.262Z,78.750000
2024-02-06T02:47:01.133Z,67.500000
2024-02-06T02:48:01.364Z,67.500000
2024-02-06T02:49:01.313Z,67.500000
2024-02-06T02:50:04.439Z,78.750000
2024-02-06T02:51:00.214Z,78.750000
2024-02-06T02:52:00.648Z,78.750000
2024-02-06T02:53:00.221Z,67.500000
2024-02-06T02:54:00.555Z,67.500000
2024-02-06T02:55:03.108Z,67.500000
2024-02-06T02:56:00.730Z,67.500000
2024-02-06T02:57:00.289Z,67.500000
2024-02-06T02:58:00.809Z,67.500000
2024-02-06T02:59:00.264Z,67.500000
2024-02-06T03:00:05.245Z,33.750000
2024-02-06T03:01:00.349Z,33.750000
2024-02-06T03:02:01.082Z,33.750000
2024-02-06T03:03:00.358Z,56.250000
2024-02-06T03:04:01.050Z,56.250000
2024-02-06T03:05:03.308Z,56.250000
2024-02-06T03:06:00.971Z,56.250000
2024-02-06T03:07:00.364Z,56.250000
2024-02-06T03:08:01.201Z,101.250000
2024-02-06T03:09:02.482Z,101.250000
2024-02-06T03:10:03.873Z,67.500000
2024-02-06T03:11:00.438Z,67.500000
2024-02-06T03:12:01.160Z,67.500000
2024-02-06T03:13:00.467Z,33.750000
2024-02-06T03:14:01.300Z,33.750000
2024-02-06T03:15:03.201Z,67.500000
2024-02-06T03:16:01.465Z,67.500000
2024-02-06T03:17:00.557Z,67.500000
2024-02-06T03:18:01.209Z,90.000000
2024-02-06T03:19:00.538Z,90.000000
2024-02-06T03:20:04.061Z,90.000000
2024-02-06T03:21:00.514Z,90.000000
2024-02-06T03:22:00.576Z,90.000000
2024-02-06T03:23:00.459Z,67.500000
2024-02-06T03:24:00.573Z,67.500000
2024-02-06T03:25:03.479Z,67.500000
2024-02-06T03:26:00.650Z,56.250000
2024-02-06T03:27:00.583Z,56.250000
2024-02-06T03:28:00.592Z,33.750000
2024-02-06T03:29:00.550Z,33.750000
2024-02-06T03:30:03.930Z,33.750000
2024-02-06T03:31:00.589Z,45.000000
2024-02-06T03:32:00.631Z,45.000000
2024-02-06T03:33:00.640Z,56.250000
2024-02-06T03:34:00.815Z,56.250000
2024-02-06T03:35:04.696Z,56.250000
2024-02-06T03:36:00.730Z,78.750000
2024-02-06T03:37:00.688Z,78.750000
2024-02-06T03:38:00.709Z,78.750000
2024-02-06T03:39:00.627Z,78.750000
2024-02-06T03:40:03.845Z,78.750000
2024-02-06T03:41:00.704Z,67.500000
2024-02-06T03:42:00.751Z,67.500000
2024-02-06T03:43:00.746Z,67.500000
2024-02-06T03:44:00.801Z,67.500000
2024-02-06T03:45:03.839Z,67.500000
2024-02-06T03:46:00.831Z,56.250000
2024-02-06T03:47:00.690Z,56.250000
2024-02-06T03:48:00.839Z,56.250000
2024-02-06T03:49:00.822Z,56.250000
2024-02-06T03:50:04.191Z,56.250000
2024-02-06T03:51:00.761Z,56.250000
2024-02-06T03:52:00.949Z,56.250000
2024-02-06T03:53:00.799Z,56.250000
2024-02-06T03:54:00.828Z,78.750000
2024-02-06T03:55:03.837Z,78.750000
2024-02-06T03:56:00.861Z,56.250000
2024-02-06T03:57:00.778Z,56.250000
2024-02-06T03:58:00.904Z,56.250000
2024-02-06T03:59:00.785Z,22.500000
2024-02-06T04:00:05.374Z,22.500000
2024-02-06T04:01:00.901Z,33.750000
2024-02-06T04:02:01.023Z,33.750000
2024-02-06T04:03:00.930Z,33.750000
2024-02-06T04:04:00.960Z,45.000000
2024-02-06T04:05:03.820Z,45.000000
2024-02-06T04:06:00.977Z,56.250000
2024-02-06T04:07:00.940Z,56.250000
2024-02-06T04:08:01.012Z,56.250000
2024-02-06T04:09:00.930Z,67.500000
2024-02-06T04:10:04.372Z,67.500000
2024-02-06T04:11:00.885Z,56.250000
2024-02-06T04:12:01.001Z,56.250000
2024-02-06T04:13:00.934Z,56.250000
2024-02-06T04:14:01.007Z,56.250000
2024-02-06T04:15:03.829Z,56.250000
2024-02-06T04:16:01.108Z,56.250000
2024-02-06T04:17:00.976Z,67.500000
2024-02-06T04:18:01.142Z,67.500000
2024-02-06T04:19:01.222Z,90.000000
2024-02-06T04:20:04.389Z,90.000000
2024-02-06T04:21:00.996Z,90.000000
2024-02-06T04:22:01.060Z,45.000000
2024-02-06T04:23:00.986Z,45.000000
2024-02-06T04:24:01.118Z,56.250000
2024-02-06T04:25:03.989Z,56.250000
2024-02-06T04:26:01.134Z,78.750000
2024-02-06T04:27:01.071Z,78.750000
2024-02-06T04:28:01.216Z,78.750000
2024-02-06T04:29:01.067Z,33.750000
2024-02-06T04:30:05.382Z,33.750000
2024-02-06T04:31:01.163Z,33.750000
2024-02-06T04:32:01.187Z,56.250000
2024-02-06T04:33:01.193Z,56.250000
2024-02-06T04:34:01.351Z,67.500000
2024-02-06T04:35:04.247Z,67.500000
2024-02-06T04:36:01.227Z,56.250000
2024-02-06T04:37:01.204Z,56.250000
2024-02-06T04:38:01.210Z,56.250000
2024-02-06T04:39:01.155Z,78.750000
2024-02-06T04:40:04.543Z,78.750000
2024-02-06T04:41:01.217Z,78.750000
2024-02-06T04:42:00.249Z,56.250000
2024-02-06T04:43:00.264Z,56.250000
2024-02-06T04:44:00.303Z,67.500000
2024-02-06T04:45:03.134Z,67.500000
2024-02-06T04:46:00.368Z,67.500000
2024-02-06T04:47:00.351Z,67.500000
2024-02-06T04:48:00.345Z,67.500000
2024-02-06T04:49:00.292Z,67.500000
2024-02-06T04:50:03.807Z,67.500000
2024-02-06T04:51:00.295Z,78.750000
2024-02-06T04:52:00.356Z,78.750000
2024-02-06T04:53:00.281Z,78.750000
2024-02-06T04:54:00.387Z,56.250000
2024-02-06T04:55:03.297Z,56.250000
2024-02-06T04:56:00.440Z,67.500000
2024-02-06T04:57:00.343Z,67.500000
2024-02-06T04:58:00.441Z,67.500000
2024-02-06T04:59:00.363Z,78.750000
2024-02-06T05:00:03.806Z,78.750000
2024-02-06T05:01:00.427Z,56.250000
2024-02-06T05:02:00.559Z,56.250000
2024-02-06T05:03:00.396Z,56.250000
2024-02-06T05:04:00.567Z,90.000000
2024-02-06T05:05:03.481Z,90.000000
2024-02-06T05:06:00.544Z,90.000000
2024-02-06T05:07:00.522Z,90.000000
2024-02-06T05:08:00.721Z,90.000000
2024-02-06T05:09:00.471Z,33.750000
2024-02-06T05:10:04.117Z,33.750000
2024-02-06T05:11:00.502Z,33.750000
2024-02-06T05:12:00.622Z,90.000000
2024-02-06T05:13:00.571Z,90.000000
2024-02-06T05:14:00.583Z,90.000000
2024-02-06T05:15:03.404Z,67.500000
2024-02-06T05:16:00.637Z,67.500000
2024-02-06T05:17:00.589Z,67.500000
2024-02-06T05:18:00.710Z,67.500000
2024-02-06T05:19:00.769Z,67.500000
2024-02-06T05:20:03.936Z,78.750000
2024-02-06T05:21:00.557Z,78.750000
2024-02-06T05:22:00.777Z,78.750000
2024-02-06T05:23:00.582Z,78.750000
2024-02-06T05:24:00.692Z,78.750000
2024-02-06T05:25:04.318Z,78.750000
2024-02-06T05:26:00.715Z,78.750000
2024-02-06T05:27:00.640Z,67.500000
2024-02-06T05:28:00.833Z,67.500000
2024-02-06T05:29:00.663Z,67.500000
2024-02-06T05:30:03.974Z,45.000000
2024-02-06T05:31:00.744Z,45.000000
2024-02-06T05:32:03.927Z,78.750000
2024-02-06T05:33:00.722Z,78.750000
2024-02-06T05:34:00.835Z,78.750000
2024-02-06T05:35:03.796Z,78.750000
2024-02-06T05:36:00.801Z,78.750000
2024-02-06T05:37:00.781Z,78.750000
2024-02-06T05:38:00.785Z,56.250000
2024-02-06T05:39:00.763Z,56.250000
2024-02-06T05:40:04.178Z,45.000000
2024-02-06T05:41:00.763Z,45.000000
2024-02-06T05:42:00.847Z,33.750000
2024-02-06T05:43:00.805Z,33.750000
2024-02-06T05:44:00.836Z,67.500000
2024-02-06T05:45:03.657Z,67.500000
2024-02-06T05:46:00.855Z,67.500000
2024-02-06T05:47:00.815Z,56.250000
2024-02-06T05:48:01.658Z,56.250000
2024-02-06T05:49:01.040Z,56.250000
2024-02-06T05:50:04.206Z,56.250000
2024-02-06T05:51:00.820Z,56.250000
2024-02-06T05:52:00.903Z,56.250000
2024-02-06T05:53:00.819Z,56.250000
2024-02-06T05:54:00.909Z,56.250000
2024-02-06T05:55:03.836Z,67.500000
2024-02-06T05:56:01.089Z,67.500000
2024-02-06T05:57:00.872Z,67.500000
2024-02-06T05:58:01.017Z,78.750000
2024-02-06T05:59:03.748Z,78.750000
2024-02-06T06:00:04.423Z,78.750000
2024-02-06T06:01:01.043Z,78.750000
2024-02-06T06:02:01.105Z,78.750000
2024-02-06T06:03:00.929Z,45.000000
2024-02-06T06:04:01.260Z,45.000000
2024-02-06T06:05:04.294Z,45.000000
2024-02-06T06:06:01.241Z,45.000000
2024-02-06T06:07:01.169Z,67.500000
2024-02-06T06:08:01.091Z,67.500000
2024-02-06T06:09:01.001Z,67.500000
2024-02-06T06:10:04.496Z,33.750000
2024-02-06T06:11:01.045Z,33.750000
2024-02-06T06:12:01.150Z,67.500000
2024-02-06T06:13:01.075Z,67.500000
2024-02-06T06:14:01.141Z,67.500000
2024-02-06T06:15:04.151Z,56.250000
2024-02-06T06:16:01.248Z,56.250000
2024-02-06T06:17:01.088Z,56.250000
2024-02-06T06:18:01.219Z,56.250000
2024-02-06T06:19:01.190Z,56.250000
2024-02-06T06:20:05.120Z,45.000000
2024-02-06T06:21:01.147Z,45.000000
2024-02-06T06:22:02.894Z,45.000000
2024-02-06T06:23:01.139Z,67.500000
2024-02-06T06:24:01.353Z,67.500000
2024-02-06T06:25:04.230Z,56.250000
2024-02-06T06:26:01.227Z,56.250000
2024-02-06T06:27:00.181Z,67.500000
2024-02-06T06:28:00.321Z,67.500000
2024-02-06T06:29:00.205Z,67.500000
2024-02-06T06:30:03.764Z,67.500000
2024-02-06T06:31:00.262Z,67.500000
2024-02-06T06:32:00.343Z,67.500000
2024-02-06T06:33:00.421Z,56.250000
2024-02-06T06:34:00.508Z,56.250000
2024-02-06T06:35:03.292Z,56.250000
2024-02-06T06:36:00.375Z,56.250000
2024-02-06T06:37:00.330Z,56.250000
2024-02-06T06:38:00.488Z,45.000000
2024-02-06T06:39:00.302Z,45.000000
2024-02-06T06:40:03.914Z,56.250000
2024-02-06T06:41:00.309Z,56.250000
2024-02-06T06:42:00.450Z,56.250000
2024-02-06T06:43:00.424Z,22.500000
2024-02-06T06:44:00.459Z,22.500000
2024-02-06T06:45:03.263Z,22.500000
2024-02-06T06:46:00.472Z,45.000000
2024-02-06T06:47:00.400Z,45.000000
2024-02-06T06:48:00.611Z,45.000000
2024-02-06T06:49:00.454Z,45.000000
2024-02-06T06:50:03.835Z,67.500000
2024-02-06T06:51:00.436Z,67.500000
2024-02-06T06:52:00.576Z,67.500000
2024-02-06T06:53:00.437Z,67.500000
2024-02-06T06:54:00.555Z,67.500000
2024-02-06T06:55:03.659Z,67.500000
2024-02-06T06:56:00.500Z,78.750000
2024-02-06T06:57:00.472Z,78.750000
2024-02-06T06:58:00.548Z,78.750000
2024-02-06T06:59:00.475Z,56.250000
2024-02-06T07:00:04.325Z,56.250000
2024-02-06T07:01:00.664Z,56.250000
2024-02-06T07:02:00.756Z,56.250000
2024-02-06T07:03:00.631Z,56.250000
2024-02-06T07:04:00.680Z,56.250000
2024-02-06T07:05:03.443Z,56.250000
2024-02-06T07:06:00.682Z,78.750000
2024-02-06T07:07:00.696Z,78.750000
2024-02-06T07:08:00.722Z,78.750000
2024-02-06T07:09:00.681Z,67.500000
2024-02-06T07:10:04.257Z,67.500000
2024-02-06T07:11:00.693Z,45.000000
2024-02-06T07:12:00.696Z,45.000000
2024-02-06T07:13:00.732Z,67.500000
2024-02-06T07:14:00.723Z,67.500000
2024-02-06T07:15:04.409Z,67.500000
2024-02-06T07:16:00.910Z,67.500000
2024-02-06T07:17:00.744Z,67.500000
2024-02-06T07:18:00.875Z,67.500000
2024-02-06T07:19:00.844Z,45.000000
2024-02-06T07:20:04.191Z,45.000000
2024-02-06T07:21:00.781Z,45.000000
2024-02-06T07:22:02.842Z,67.500000
2024-02-06T07:23:00.729Z,67.500000
2024-02-06T07:24:00.834Z,78.750000
2024-02-06T07:25:04.193Z,78.750000
2024-02-06T07:26:03.661Z,78.750000
2024-02-06T07:27:00.786Z,78.750000
2024-02-06T07:28:00.896Z,78.750000
2024-02-06T07:29:00.783Z,78.750000
2024-02-06T07:30:05.170Z,78.750000
2024-02-06T07:31:00.898Z,67.500000
2024-02-06T07:32:00.911Z,67.500000
2024-02-06T07:33:00.977Z,67.500000
2024-02-06T07:34:01.419Z,67.500000
2024-02-06T07:35:04.045Z,67.500000
2024-02-06T07:36:00.956Z,45.000000
2024-02-06T07:37:00.916Z,45.000000
2024-02-06T07:38:03.204Z,45.000000
2024-02-06T07:39:00.911Z,45.000000
2024-02-06T07:40:04.275Z,45.000000
2024-02-06T07:41:00.888Z,45.000000
2024-02-06T07:42:00.994Z,78.750000
2024-02-06T07:43:00.938Z,78.750000
2024-02-06T07:44:01.032Z,45.000000
2024-02-06T07:45:03.999Z,45.000000
2024-02-06T07:46:01.110Z,45.000000
2024-02-06T07:47:00.944Z,45.000000
2024-02-06T07:48:01.335Z,56.250000
2024-02-06T07:49:01.113Z,56.250000
2024-02-06T07:50:04.379Z,56.250000
2024-02-06T07:51:00.977Z,45.000000
2024-02-06T07:52:01.184Z,45.000000
2024-02-06T07:53:00.977Z,45.000000
2024-02-06T07:54:01.107Z,67.500000
2024-02-06T07:55:04.095Z,67.500000
2024-02-06T07:56:01.105Z,45.000000
2024-02-06T07:57:01.070Z,45.000000
2024-02-06T07:58:01.157Z,67.500000
2024-02-06T07:59:01.060Z,67.500000
2024-02-06T08:00:04.653Z,67.500000
2024-02-06T08:01:01.260Z,56.250000
2024-02-06T08:02:01.238Z,56.250000
2024-02-06T08:03:01.091Z,56.250000
2024-02-06T08:04:05.213Z,67.500000
2024-02-06T08:05:04.335Z,67.500000
2024-02-06T08:06:01.376Z,67.500000
2024-02-06T08:07:01.218Z,67.500000
2024-02-06T08:08:01.453Z,67.500000
2024-02-06T08:09:01.258Z,56.250000
2024-02-06T08:10:06.151Z,56.250000
2024-02-06T08:11:00.169Z,56.250000
2024-02-06T08:12:02.381Z,45.000000
2024-02-06T08:13:00.304Z,45.000000
2024-02-06T08:14:00.312Z,78.750000
2024-02-06T08:15:03.334Z,78.750000
2024-02-06T08:16:00.367Z,78.750000
2024-02-06T08:17:00.246Z,45.000000
2024-02-06T08:18:00.434Z,45.000000
2024-02-06T08:19:00.396Z,78.750000
2024-02-06T08:20:04.066Z,78.750000
2024-02-06T08:21:00.284Z,67.500000
2024-02-06T08:22:00.537Z,67.500000
2024-02-06T08:23:00.340Z,67.500000
2024-02-06T08:24:00.449Z,56.250000
2024-02-06T08:25:03.413Z,56.250000
2024-02-06T08:26:00.460Z,56.250000
2024-02-06T08:27:00.370Z,33.750000
2024-02-06T08:28:01.025Z,33.750000
2024-02-06T08:29:00.343Z,67.500000
2024-02-06T08:30:03.642Z,67.500000
2024-02-06T08:31:02.897Z,67.500000
2024-02-06T08:32:01.524Z,67.500000
2024-02-06T08:33:00.527Z,67.500000
2024-02-06T08:34:00.614Z,67.500000
2024-02-06T08:35:03.451Z,78.750000
2024-02-06T08:36:00.710Z,78.750000
2024-02-06T08:37:00.598Z,56.250000
2024-02-06T08:38:00.622Z,56.250000
2024-02-06T08:39:00.631Z,56.250000
2024-02-06T08:40:04.046Z,56.250000
2024-02-06T08:41:00.542Z,56.250000
2024-02-06T08:42:00.566Z,33.750000
2024-02-06T08:43:00.618Z,33.750000
2024-02-06T08:44:01.757Z,67.500000
2024-02-06T08:45:03.523Z,67.500000
2024-02-06T08:46:00.687Z,67.500000
2024-02-06T08:47:00.596Z,90.000000
2024-02-06T08:48:00.738Z,90.000000
2024-02-06T08:49:00.791Z,90.000000
2024-02-06T08:50:04.062Z,78.750000
2024-02-06T08:51:00.656Z,78.750000
2024-02-06T08:52:00.809Z,67.500000
2024-02-06T08:53:00.573Z,67.500000
2024-02-06T08:54:01.021Z,67.500000
2024-02-06T08:55:03.598Z,67.500000
2024-02-06T08:56:00.726Z,67.500000
2024-02-06T08:57:00.614Z,67.500000
2024-02-06T08:58:00.728Z,67.500000
2024-02-06T08:59:00.711Z,67.500000
2024-02-06T09:00:04.209Z,56.250000
2024-02-06T09:01:00.732Z,56.250000
2024-02-06T09:02:00.901Z,45.000000
2024-02-06T09:03:00.684Z,45.000000
2024-02-06T09:04:04.586Z,45.000000
2024-02-06T09:05:04.546Z,45.000000
2024-02-06T09:06:01.029Z,45.000000
2024-02-06T09:07:00.898Z,56.250000
2024-02-06T09:08:00.876Z,56.250000
2024-02-06T09:09:00.779Z,56.250000
2024-02-06T09:10:04.013Z,45.000000
2024-02-06T09:11:00.849Z,45.000000
2024-02-06T09:12:00.898Z,67.500000
2024-02-06T09:13:02.125Z,67.500000
2024-02-06T09:14:01.957Z,67.500000
2024-02-06T09:15:03.834Z,56.250000
2024-02-06T09:16:01.982Z,56.250000
2024-02-06T09:17:01.501Z,67.500000
2024-02-06T09:18:00.964Z,67.500000
2024-02-06T09:19:01.787Z,67.500000
2024-02-06T09:20:04.691Z,67.500000
2024-02-06T09:21:00.844Z,67.500000
2024-02-06T09:22:00.953Z,45.000000
2024-02-06T09:23:00.884Z,45.000000
2024-02-06T09:24:00.946Z,45.000000
2024-02-06T09:25:03.814Z,33.750000
2024-02-06T09:26:00.971Z,33.750000
2024-02-06T09:27:00.920Z,56.250000
2024-02-06T09:28:01.056Z,56.250000
2024-02-06T09:29:00.920Z,56.250000
2024-02-06T09:30:04.383Z,67.500000
2024-02-06T09:31:00.995Z,67.500000
2024-02-06T09:32:01.099Z,67.500000
2024-02-06T09:33:01.037Z,67.500000
2024-02-06T09:34:01.166Z,67.500000
2024-02-06T09:35:04.114Z,90.000000
2024-02-06T09:36:01.123Z,90.000000
2024-02-06T09:37:01.075Z,90.000000
2024-02-06T09:38:01.110Z,78.750000
2024-02-06T09:39:01.049Z,78.750000
2024-02-06T09:40:04.485Z,67.500000
2024-02-06T09:41:01.124Z,67.500000
2024-02-06T09:42:01.159Z,67.500000
2024-02-06T09:43:02.092Z,56.250000
2024-02-06T09:44:01.265Z,56.250000
2024-02-06T09:45:05.806Z,56.250000
2024-02-06T09:46:01.322Z,56.250000
2024-02-06T09:47:01.210Z,56.250000
2024-02-06T09:48:01.323Z,33.750000
2024-02-06T09:49:01.333Z,33.750000
2024-02-06T09:50:04.670Z,45.000000
2024-02-06T09:51:01.182Z,45.000000
2024-02-06T09:52:01.417Z,45.000000
2024-02-06T09:53:01.300Z,45.000000
2024-02-06T09:54:01.263Z,45.000000
2024-02-06T09:55:04.170Z,45.000000
2024-02-06T09:56:00.316Z,78.750000
2024-02-06T09:57:00.284Z,78.750000
2024-02-06T09:58:00.528Z,78.750000
2024-02-06T09:59:00.321Z,67.500000
2024-02-06T10:00:07.585Z,67.500000
2024-02-06T10:01:00.411Z,56.250000
2024-02-06T10:02:34.912Z,67.500000
2024-02-06T10:03:00.320Z,67.500000
2024-02-06T10:04:02.265Z,67.500000
2024-02-06T10:05:03.539Z,67.500000
2024-02-06T10:06:00.495Z,56.250000
2024-02-06T10:07:00.313Z,56.250000
2024-02-06T10:08:00.425Z,67.500000
2024-02-06T10:09:00.359Z,67.500000
2024-02-06T10:10:05.283Z,67.500000
2024-02-06T10:11:00.394Z,67.500000
2024-02-06T10:12:00.451Z,67.500000
2024-02-06T10:13:00.395Z,67.500000
2024-02-06T10:14:00.438Z,67.500000
2024-02-06T10:15:03.384Z,67.500000
2024-02-06T10:16:00.494Z,33.750000
2024-02-06T10:17:00.391Z,33.750000
2024-02-06T10:18:00.486Z,33.750000
2024-02-06T10:19:00.501Z,45.000000
2024-02-06T10:20:04.073Z,45.000000
2024-02-06T10:21:00.471Z,45.000000
2024-02-06T10:22:00.587Z,45.000000
2024-02-06T10:23:00.489Z,45.000000
2024-02-06T10:24:00.618Z,56.250000
2024-02-06T10:25:03.706Z,56.250000
2024-02-06T10:26:00.618Z,56.250000
2024-02-06T10:27:00.511Z,56.250000
2024-02-06T10:28:00.635Z,67.500000
2024-02-06T10:29:00.485Z,67.500000
2024-02-06T10:30:04.562Z,67.500000
2024-02-06T10:31:00.624Z,56.250000
2024-02-06T10:32:00.750Z,56.250000
2024-02-06T10:33:00.620Z,67.500000
2024-02-06T10:34:00.797Z,67.500000
2024-02-06T10:35:03.553Z,67.500000
2024-02-06T10:36:00.712Z,67.500000
2024-02-06T10:37:00.657Z,67.500000
2024-02-06T10:38:00.795Z,67.500000
2024-02-06T10:39:00.640Z,56.250000
2024-02-06T10:40:05.554Z,56.250000
2024-02-06T10:41:12.234Z,56.250000
2024-02-06T10:44:00.926Z,67.500000
2024-02-06T10:45:04.563Z,67.500000
2024-02-06T10:46:01.053Z,90.000000
2024-02-06T10:47:00.801Z,90.000000
2024-02-06T10:48:00.978Z,90.000000
2024-02-06T10:49:00.799Z,90.000000
2024-02-06T10:50:04.550Z,90.000000
2024-02-06T10:51:01.619Z,67.500000
2024-02-06T10:52:04.731Z,67.500000
2024-02-06T10:53:00.835Z,56.250000
2024-02-06T10:54:00.914Z,56.250000
2024-02-06T10:55:04.478Z,56.250000
2024-02-06T10:56:00.986Z,45.000000
2024-02-06T10:57:00.831Z,45.000000
2024-02-06T10:58:00.893Z,67.500000
2024-02-06T10:59:00.808Z,67.500000
2024-02-06T11:00:05.439Z,67.500000
2024-02-06T11:01:00.898Z,67.500000
2024-02-06T11:02:00.963Z,67.500000
2024-02-06T11:03:00.898Z,45.000000
2024-02-06T11:05:08.902Z,45.000000
2024-02-06T11:06:01.051Z,56.250000
2024-02-06T11:07:00.916Z,56.250000
2024-02-06T11:08:00.953Z,56.250000
2024-02-06T11:09:00.862Z,56.250000
2024-02-06T11:10:04.362Z,56.250000
2024-02-06T11:11:00.929Z,56.250000
2024-02-06T11:12:00.951Z,56.250000
2024-02-06T11:13:00.946Z,56.250000
2024-02-06T11:14:00.981Z,67.500000
2024-02-06T11:15:04.090Z,67.500000
2024-02-06T11:16:01.053Z,67.500000
2024-02-06T11:17:00.957Z,56.250000
2024-02-06T11:18:01.012Z,56.250000
2024-02-06T11:19:01.130Z,56.250000
2024-02-06T11:20:04.781Z,56.250000
2024-02-06T11:21:01.017Z,56.250000
2024-02-06T11:22:01.150Z,56.250000
2024-02-06T11:23:01.069Z,56.250000
2024-02-06T11:24:01.075Z,67.500000
2024-02-06T11:25:04.096Z,67.500000
2024-02-06T11:26:01.133Z,67.500000
2024-02-06T11:27:01.015Z,67.500000
2024-02-06T11:28:05.490Z,67.500000
2024-02-06T11:29:01.038Z,56.250000
2024-02-06T11:30:04.541Z,56.250000